createdAt,value
2023-05-21T00:00:03.355Z,94571.00
2023-05-21T00:01:03.354Z,94571.00
2023-05-21T00:02:03.349Z,94571.00
2023-05-21T00:03:03.389Z,94569.00
2023-05-21T00:04:03.340Z,94569.00
2023-05-21T00:05:03.348Z,94571.00
2023-05-21T00:06:03.339Z,94569.00
2023-05-21T00:07:03.320Z,94569.00
2023-05-21T00:08:03.287Z,94569.00
2023-05-21T00:09:03.297Z,94567.00
2023-05-21T00:10:03.312Z,94569.00
2023-05-21T00:11:03.269Z,94571.00
2023-05-21T00:12:03.241Z,94567.00
2023-05-21T00:13:03.248Z,94565.00
2023-05-21T00:14:03.273Z,94563.00
2023-05-21T00:15:03.252Z,94563.00
2023-05-21T00:16:03.306Z,94561.00
2023-05-21T00:17:03.216Z,94559.00
2023-05-21T00:18:03.210Z,94563.00
2023-05-21T00:19:03.233Z,94561.00
2023-05-21T00:20:03.193Z,94567.00
2023-05-21T00:21:03.217Z,94569.00
2023-05-21T00:22:03.202Z,94567.00
2023-05-21T00:23:03.180Z,94567.00
2023-05-21T00:24:03.192Z,94569.00
2023-05-21T00:25:03.214Z,94567.00
2023-05-21T00:26:03.161Z,94567.00
2023-05-21T00:27:03.172Z,94569.00
2023-05-21T00:28:03.132Z,94567.00
2023-05-21T00:29:03.169Z,94571.00
2023-05-21T00:30:03.146Z,94571.00
2023-05-21T00:31:03.099Z,94573.00
2023-05-21T00:32:03.512Z,94571.00
2023-05-21T00:33:03.236Z,94571.00
2023-05-21T00:34:03.101Z,94569.00
2023-05-21T00:35:03.902Z,94571.00
2023-05-21T00:36:03.099Z,94567.00
2023-05-21T00:37:03.085Z,94567.00
2023-05-21T00:38:03.103Z,94567.00
2023-05-21T00:39:03.098Z,94567.00
2023-05-21T00:40:03.082Z,94569.00
2023-05-21T00:41:03.054Z,94567.00
2023-05-21T00:42:03.042Z,94565.00
2023-05-21T00:43:03.042Z,94567.00
2023-05-21T00:44:03.000Z,94569.00
2023-05-21T00:45:02.985Z,94569.00
2023-05-21T00:46:03.068Z,94569.00
2023-05-21T00:47:02.986Z,94569.00
2023-05-21T00:48:03.062Z,94569.00
2023-05-21T00:49:02.995Z,94569.00
2023-05-21T00:50:03.009Z,94569.00
2023-05-21T00:51:03.012Z,94567.00
2023-05-21T00:52:03.007Z,94565.00
2023-05-21T00:53:03.028Z,94565.00
2023-05-21T00:54:03.008Z,94567.00
2023-05-21T00:55:03.022Z,94565.00
2023-05-21T00:56:02.970Z,94563.00
2023-05-21T00:57:03.011Z,94565.00
2023-05-21T00:58:03.019Z,94567.00
2023-05-21T00:59:03.006Z,94563.00
2023-05-21T01:00:03.033Z,94567.00
2023-05-21T01:01:03.125Z,94567.00
2023-05-21T01:02:03.069Z,94565.00
2023-05-21T01:03:03.080Z,94565.00
2023-05-21T01:04:03.006Z,94565.00
2023-05-21T01:05:03.038Z,94565.00
2023-05-21T01:06:03.032Z,94563.00
2023-05-21T01:07:03.031Z,94565.00
2023-05-21T01:08:03.012Z,94563.00
2023-05-21T01:09:04.968Z,94563.00
2023-05-21T01:10:03.038Z,94569.00
2023-05-21T01:11:03.060Z,94565.00
2023-05-21T01:12:03.065Z,94563.00
2023-05-21T01:13:03.068Z,94563.00
2023-05-21T01:14:03.078Z,94561.00
2023-05-21T01:15:03.067Z,94565.00
2023-05-21T01:16:03.080Z,94567.00
2023-05-21T01:17:03.150Z,94565.00
2023-05-21T01:18:03.169Z,94563.00
2023-05-21T01:19:03.332Z,94561.00
2023-05-21T01:20:03.223Z,94561.00
2023-05-21T01:21:03.194Z,94557.00
2023-05-21T01:22:03.132Z,94561.00
2023-05-21T01:23:03.158Z,94559.00
2023-05-21T01:24:03.182Z,94551.00
2023-05-21T01:25:03.203Z,94551.00
2023-05-21T01:26:03.224Z,94553.00
2023-05-21T01:27:03.173Z,94553.00
2023-05-21T01:28:03.222Z,94553.00
2023-05-21T01:29:03.223Z,94553.00
2023-05-21T01:30:03.244Z,94553.00
2023-05-21T01:31:03.261Z,94555.00
2023-05-21T01:32:03.248Z,94555.00
2023-05-21T01:33:03.461Z,94553.00
2023-05-21T01:34:03.288Z,94553.00
2023-05-21T01:35:03.339Z,94549.00
2023-05-21T01:36:03.321Z,94549.00
2023-05-21T01:37:03.308Z,94555.00
2023-05-21T01:38:03.333Z,94555.00
2023-05-21T01:39:03.315Z,94553.00
2023-05-21T01:40:03.350Z,94551.00
2023-05-21T01:41:03.334Z,94549.00
2023-05-21T01:42:03.379Z,94549.00
2023-05-21T01:43:03.376Z,94547.00
2023-05-21T01:44:03.399Z,94549.00
2023-05-21T01:45:03.554Z,94549.00
2023-05-21T01:46:03.444Z,94549.00
2023-05-21T01:47:03.473Z,94547.00
2023-05-21T01:48:03.528Z,94549.00
2023-05-21T01:49:03.505Z,94547.00
2023-05-21T01:50:03.519Z,94545.00
2023-05-21T01:51:03.554Z,94543.00
2023-05-21T01:52:03.536Z,94541.00
2023-05-21T01:53:03.600Z,94540.00
2023-05-21T01:54:03.606Z,94543.00
2023-05-21T01:55:03.632Z,94547.00
2023-05-21T01:56:03.641Z,94545.00
2023-05-21T01:57:03.649Z,94545.00
2023-05-21T01:58:03.711Z,94545.00
2023-05-21T01:59:03.673Z,94545.00
2023-05-21T02:00:03.693Z,94545.00
2023-05-21T02:01:03.740Z,94543.00
2023-05-21T02:02:03.816Z,94543.00
2023-05-21T02:03:03.918Z,94545.00
2023-05-21T02:04:03.850Z,94545.00
2023-05-21T02:05:03.836Z,94545.00
2023-05-21T02:06:03.836Z,94547.00
2023-05-21T02:07:03.862Z,94547.00
2023-05-21T02:08:03.855Z,94545.00
2023-05-21T02:09:03.936Z,94545.00
2023-05-21T02:10:03.950Z,94547.00
2023-05-21T02:11:03.988Z,94549.00
2023-05-21T02:12:04.015Z,94551.00
2023-05-21T02:13:03.994Z,94553.00
2023-05-21T02:14:04.109Z,94555.00
2023-05-21T02:15:04.052Z,94553.00
2023-05-21T02:16:04.220Z,94553.00
2023-05-21T02:17:04.120Z,94555.00
2023-05-21T02:18:04.182Z,94557.00
2023-05-21T02:19:04.223Z,94555.00
2023-05-21T02:20:04.140Z,94553.00
2023-05-21T02:21:04.238Z,94557.00
2023-05-21T02:22:04.257Z,94559.00
2023-05-21T02:23:04.333Z,94561.00
2023-05-21T02:24:04.282Z,94563.00
2023-05-21T02:25:04.314Z,94557.00
2023-05-21T02:26:04.400Z,94553.00
2023-05-21T02:27:04.394Z,94555.00
2023-05-21T02:28:04.462Z,94557.00
2023-05-21T02:29:04.469Z,94559.00
2023-05-21T02:30:04.473Z,94553.00
2023-05-21T02:31:04.509Z,94557.00
2023-05-21T02:32:04.528Z,94551.00
2023-05-21T02:33:04.729Z,94551.00
2023-05-21T02:34:04.642Z,94551.00
2023-05-21T02:35:04.654Z,94547.00
2023-05-21T02:36:04.665Z,94543.00
2023-05-21T02:37:04.686Z,94540.00
2023-05-21T02:38:04.677Z,94540.00
2023-05-21T02:39:04.733Z,94541.00
2023-05-21T02:40:04.797Z,94543.00
2023-05-21T02:41:04.769Z,94541.00
2023-05-21T02:42:04.823Z,94541.00
2023-05-21T02:43:04.816Z,94541.00
2023-05-21T02:44:04.921Z,94540.00
2023-05-21T02:45:04.926Z,94540.00
2023-05-21T02:46:05.060Z,94538.00
2023-05-21T02:47:04.979Z,94536.00
2023-05-21T02:48:05.100Z,94532.00
2023-05-21T02:49:05.046Z,94532.00
2023-05-21T02:50:05.099Z,94534.00
2023-05-21T02:51:05.161Z,94532.00
2023-05-21T02:52:05.179Z,94536.00
2023-05-21T02:53:05.215Z,94536.00
2023-05-21T02:54:05.275Z,94536.00
2023-05-21T02:55:05.269Z,94532.00
2023-05-21T02:56:05.319Z,94534.00
2023-05-21T02:57:05.389Z,94536.00
2023-05-21T02:58:05.409Z,94541.00
2023-05-21T02:59:05.436Z,94538.00
2023-05-21T03:00:05.501Z,94538.00
2023-05-21T03:01:05.537Z,94541.00
2023-05-21T03:02:05.615Z,94540.00
2023-05-21T03:03:05.711Z,94540.00
2023-05-21T03:04:05.660Z,94536.00
2023-05-21T03:05:05.718Z,94540.00
2023-05-21T03:06:05.733Z,94541.00
2023-05-21T03:07:05.769Z,94545.00
2023-05-21T03:08:05.841Z,94543.00
2023-05-21T03:09:05.861Z,94545.00
2023-05-21T03:10:05.880Z,94549.00
2023-05-21T03:11:05.906Z,94547.00
2023-05-21T03:12:05.972Z,94549.00
2023-05-21T03:13:07.466Z,94547.00
2023-05-21T03:14:06.016Z,94545.00
2023-05-21T03:15:06.001Z,94545.00
2023-05-21T03:16:05.953Z,94545.00
2023-05-21T03:17:06.341Z,94551.00
2023-05-21T03:18:05.983Z,94553.00
2023-05-21T03:19:06.013Z,94553.00
2023-05-21T03:20:05.916Z,94551.00
2023-05-21T03:21:05.937Z,94547.00
2023-05-21T03:22:05.939Z,94545.00
2023-05-21T03:23:05.945Z,94547.00
2023-05-21T03:24:05.937Z,94547.00
2023-05-21T03:25:05.922Z,94549.00
2023-05-21T03:26:05.890Z,94547.00
2023-05-21T03:27:05.908Z,94547.00
2023-05-21T03:28:05.922Z,94543.00
2023-05-21T03:29:05.842Z,94543.00
2023-05-21T03:30:06.716Z,94543.00
2023-05-21T03:31:05.899Z,94545.00
2023-05-21T03:32:05.909Z,94547.00
2023-05-21T03:33:05.876Z,94551.00
2023-05-21T03:34:05.849Z,94551.00
2023-05-21T03:35:05.823Z,94549.00
2023-05-21T03:36:05.818Z,94549.00
2023-05-21T03:37:05.836Z,94551.00
2023-05-21T03:38:05.842Z,94553.00
2023-05-21T03:39:05.845Z,94555.00
2023-05-21T03:40:05.804Z,94555.00
2023-05-21T03:41:05.795Z,94559.00
2023-05-21T03:42:05.910Z,94559.00
2023-05-21T03:43:05.798Z,94561.00
2023-05-21T03:44:05.785Z,94561.00
2023-05-21T03:45:05.789Z,94559.00
2023-05-21T03:46:05.816Z,94557.00
2023-05-21T03:47:05.749Z,94555.00
2023-05-21T03:48:05.768Z,94555.00
2023-05-21T03:49:05.753Z,94555.00
2023-05-21T03:50:05.710Z,94555.00
2023-05-21T03:51:05.721Z,94555.00
2023-05-21T03:52:05.765Z,94559.00
2023-05-21T03:53:05.851Z,94561.00
2023-05-21T03:54:05.877Z,94563.00
2023-05-21T03:55:05.902Z,94561.00
2023-05-21T03:56:05.902Z,94559.00
2023-05-21T03:57:05.952Z,94559.00
2023-05-21T03:58:06.032Z,94557.00
2023-05-21T03:59:06.049Z,94553.00
2023-05-21T04:00:06.048Z,94551.00
2023-05-21T04:01:06.067Z,94549.00
2023-05-21T04:02:06.115Z,94555.00
2023-05-21T04:03:06.266Z,94559.00
2023-05-21T04:04:06.313Z,94567.00
2023-05-21T04:05:06.224Z,94563.00
2023-05-21T04:06:06.263Z,94563.00
2023-05-21T04:07:06.295Z,94563.00
2023-05-21T04:08:06.349Z,94563.00
2023-05-21T04:09:06.356Z,94565.00
2023-05-21T04:10:06.397Z,94569.00
2023-05-21T04:11:06.413Z,94565.00
2023-05-21T04:12:06.456Z,94567.00
2023-05-21T04:13:06.555Z,94569.00
2023-05-21T04:14:06.508Z,94569.00
2023-05-21T04:15:06.541Z,94575.00
2023-05-21T04:16:06.540Z,94577.00
2023-05-21T04:17:06.524Z,94573.00
2023-05-21T04:18:06.561Z,94575.00
2023-05-21T04:19:07.149Z,94577.00
2023-05-21T04:20:06.579Z,94583.00
2023-05-21T04:21:06.644Z,94587.00
2023-05-21T04:22:06.684Z,94588.00
2023-05-21T04:23:06.753Z,94588.00
2023-05-21T04:24:06.760Z,94585.00
2023-05-21T04:25:06.829Z,94585.00
2023-05-21T04:26:06.891Z,94590.00
2023-05-21T04:27:06.932Z,94585.00
2023-05-21T04:28:07.051Z,94587.00
2023-05-21T04:29:07.044Z,94587.00
2023-05-21T04:30:07.116Z,94588.00
2023-05-21T04:31:07.145Z,94590.00
2023-05-21T04:32:07.181Z,94592.00
2023-05-21T04:33:07.290Z,94592.00
2023-05-21T04:34:07.238Z,94587.00
2023-05-21T04:35:07.302Z,94587.00
2023-05-21T04:36:07.368Z,94587.00
2023-05-21T04:37:07.449Z,94590.00
2023-05-21T04:38:07.471Z,94590.00
2023-05-21T04:39:07.528Z,94590.00
2023-05-21T04:40:07.579Z,94588.00
2023-05-21T04:41:07.625Z,94585.00
2023-05-21T04:42:07.703Z,94583.00
2023-05-21T04:43:07.763Z,94579.00
2023-05-21T04:44:07.832Z,94575.00
2023-05-21T04:45:07.883Z,94573.00
2023-05-21T04:46:07.952Z,94575.00
2023-05-21T04:47:08.089Z,94579.00
2023-05-21T04:48:08.147Z,94583.00
2023-05-21T04:49:08.083Z,94579.00
2023-05-21T04:50:08.177Z,94583.00
2023-05-21T04:51:08.226Z,94581.00
2023-05-21T04:52:08.312Z,94583.00
2023-05-21T04:53:08.320Z,94581.00
2023-05-21T04:54:08.417Z,94579.00
2023-05-21T04:55:08.462Z,94569.00
2023-05-21T04:56:08.466Z,94571.00
2023-05-21T04:57:08.552Z,94571.00
2023-05-21T04:58:08.633Z,94571.00
2023-05-21T04:59:08.655Z,94573.00
2023-05-21T05:00:08.753Z,94575.00
2023-05-21T05:01:08.806Z,94577.00
2023-05-21T05:02:08.808Z,94575.00
2023-05-21T05:03:08.983Z,94577.00
2023-05-21T05:04:08.930Z,94579.00
2023-05-21T05:05:08.996Z,94577.00
2023-05-21T05:06:09.048Z,94575.00
2023-05-21T05:07:09.111Z,94573.00
2023-05-21T05:08:09.152Z,94569.00
2023-05-21T05:09:09.201Z,94567.00
2023-05-21T05:10:09.287Z,94567.00
2023-05-21T05:11:09.335Z,94569.00
2023-05-21T05:12:09.396Z,94567.00
2023-05-21T05:13:09.461Z,94563.00
2023-05-21T05:14:09.509Z,94565.00
2023-05-21T05:15:09.574Z,94567.00
2023-05-21T05:16:09.644Z,94565.00
2023-05-21T05:17:09.823Z,94567.00
2023-05-21T05:18:09.766Z,94567.00
2023-05-21T05:19:09.836Z,94565.00
2023-05-21T05:20:09.858Z,94567.00
2023-05-21T05:21:09.931Z,94563.00
2023-05-21T05:22:11.839Z,94559.00
2023-05-21T05:23:09.964Z,94557.00
2023-05-21T05:24:09.968Z,94561.00
2023-05-21T05:25:09.983Z,94561.00
2023-05-21T05:26:09.959Z,94561.00
2023-05-21T05:27:09.944Z,94559.00
2023-05-21T05:28:09.959Z,94557.00
2023-05-21T05:29:09.923Z,94557.00
2023-05-21T05:30:09.929Z,94557.00
2023-05-21T05:31:09.935Z,94559.00
2023-05-21T05:32:09.952Z,94559.00
2023-05-21T05:33:09.882Z,94559.00
2023-05-21T05:34:09.900Z,94563.00
2023-05-21T05:35:09.899Z,94563.00
2023-05-21T05:36:09.875Z,94561.00
2023-05-21T05:37:09.890Z,94559.00
2023-05-21T05:38:09.878Z,94557.00
2023-05-21T05:39:09.857Z,94549.00
2023-05-21T05:40:09.859Z,94551.00
2023-05-21T05:41:09.838Z,94551.00
2023-05-21T05:42:09.853Z,94549.00
2023-05-21T05:43:09.865Z,94549.00
2023-05-21T05:44:11.013Z,94553.00
2023-05-21T05:45:09.815Z,94551.00
2023-05-21T05:46:09.835Z,94551.00
2023-05-21T05:47:09.824Z,94549.00
2023-05-21T05:48:09.846Z,94549.00
2023-05-21T05:49:09.796Z,94551.00
2023-05-21T05:50:09.908Z,94551.00
2023-05-21T05:51:09.764Z,94551.00
2023-05-21T05:52:09.773Z,94553.00
2023-05-21T05:53:09.778Z,94555.00
2023-05-21T05:54:09.756Z,94555.00
2023-05-21T05:55:09.738Z,94551.00
2023-05-21T05:56:09.751Z,94555.00
2023-05-21T05:57:09.748Z,94551.00
2023-05-21T05:58:09.714Z,94553.00
2023-05-21T05:59:09.745Z,94549.00
2023-05-21T06:00:09.802Z,94549.00
2023-05-21T06:01:09.811Z,94551.00
2023-05-21T06:02:09.893Z,94553.00
2023-05-21T06:03:09.932Z,94553.00
2023-05-21T06:04:09.896Z,94559.00
2023-05-21T06:05:09.904Z,94557.00
2023-05-21T06:06:10.021Z,94557.00
2023-05-21T06:07:09.949Z,94557.00
2023-05-21T06:08:09.965Z,94557.00
2023-05-21T06:09:09.972Z,94555.00
2023-05-21T06:10:09.968Z,94553.00
2023-05-21T06:11:09.962Z,94555.00
2023-05-21T06:12:14.612Z,94555.00
2023-05-21T06:13:10.986Z,94553.00
2023-05-21T06:14:09.951Z,94553.00
2023-05-21T06:15:09.939Z,94553.00
2023-05-21T06:16:10.140Z,94551.00
2023-05-21T06:17:09.900Z,94549.00
2023-05-21T06:18:09.999Z,94549.00
2023-05-21T06:19:10.002Z,94547.00
2023-05-21T06:20:09.948Z,94545.00
2023-05-21T06:21:09.922Z,94547.00
2023-05-21T06:22:09.914Z,94549.00
2023-05-21T06:23:09.917Z,94549.00
2023-05-21T06:24:09.930Z,94547.00
2023-05-21T06:25:09.881Z,94545.00
2023-05-21T06:26:09.869Z,94540.00
2023-05-21T06:27:09.882Z,94536.00
2023-05-21T06:28:09.859Z,94532.00
2023-05-21T06:29:09.871Z,94530.00
2023-05-21T06:30:09.865Z,94538.00
2023-05-21T06:31:09.893Z,94538.00
2023-05-21T06:32:09.971Z,94538.00
2023-05-21T06:33:10.087Z,94538.00
2023-05-21T06:34:10.099Z,94536.00
2023-05-21T06:35:10.125Z,94532.00
2023-05-21T06:36:10.173Z,94528.00
2023-05-21T06:37:10.223Z,94528.00
2023-05-21T06:38:10.329Z,94528.00
2023-05-21T06:39:10.373Z,94528.00
2023-05-21T06:40:10.375Z,94528.00
2023-05-21T06:41:10.420Z,94530.00
2023-05-21T06:42:10.507Z,94530.00
2023-05-21T06:43:10.482Z,94528.00
2023-05-21T06:44:10.569Z,94526.00
2023-05-21T06:45:10.621Z,94526.00
2023-05-21T06:46:10.666Z,94524.00
2023-05-21T06:47:10.734Z,94532.00
2023-05-21T06:48:10.902Z,94532.00
2023-05-21T06:49:12.833Z,94536.00
2023-05-21T06:50:10.755Z,94534.00
2023-05-21T06:51:10.828Z,94536.00
2023-05-21T06:52:10.821Z,94528.00
2023-05-21T06:53:10.794Z,94524.00
2023-05-21T06:54:10.740Z,94528.00
2023-05-21T06:55:10.755Z,94524.00
2023-05-21T06:56:10.853Z,94532.00
2023-05-21T06:57:10.729Z,94538.00
2023-05-21T06:58:10.694Z,94540.00
2023-05-21T06:59:10.710Z,94541.00
2023-05-21T07:00:10.719Z,94540.00
2023-05-21T07:01:10.702Z,94536.00
2023-05-21T07:02:10.727Z,94534.00
2023-05-21T07:03:10.758Z,94528.00
2023-05-21T07:04:10.772Z,94530.00
2023-05-21T07:05:10.657Z,94532.00
2023-05-21T07:06:10.683Z,94534.00
2023-05-21T07:07:10.659Z,94534.00
2023-05-21T07:08:11.916Z,94536.00
2023-05-21T07:09:10.596Z,94534.00
2023-05-21T07:10:10.656Z,94532.00
2023-05-21T07:11:10.624Z,94530.00
2023-05-21T07:12:10.660Z,94528.00
2023-05-21T07:13:10.587Z,94526.00
2023-05-21T07:14:10.621Z,94522.00
2023-05-21T07:15:10.621Z,94524.00
2023-05-21T07:16:10.634Z,94524.00
2023-05-21T07:17:10.635Z,94522.00
2023-05-21T07:18:10.598Z,94524.00
2023-05-21T07:19:10.614Z,94522.00
2023-05-21T07:20:10.574Z,94516.00
2023-05-21T07:21:10.549Z,94512.00
2023-05-21T07:22:10.564Z,94510.00
2023-05-21T07:23:10.551Z,94508.00
2023-05-21T07:24:10.535Z,94508.00
2023-05-21T07:25:10.506Z,94506.00
2023-05-21T07:26:10.514Z,94508.00
2023-05-21T07:27:24.808Z,94506.00
2023-05-21T07:28:11.491Z,94506.00
2023-05-21T07:29:10.502Z,94506.00
2023-05-21T07:30:10.478Z,94508.00
2023-05-21T07:31:10.505Z,94508.00
2023-05-21T07:32:10.488Z,94508.00
2023-05-21T07:33:10.562Z,94502.00
2023-05-21T07:34:10.452Z,94496.00
2023-05-21T07:35:10.479Z,94494.00
2023-05-21T07:36:10.434Z,94496.00
2023-05-21T07:37:10.454Z,94489.00
2023-05-21T07:38:10.438Z,94490.00
2023-05-21T07:39:10.434Z,94487.00
2023-05-21T07:40:10.421Z,94489.00
2023-05-21T07:41:10.444Z,94485.00
2023-05-21T07:42:10.407Z,94489.00
2023-05-21T07:43:10.409Z,94490.00
2023-05-21T07:44:10.483Z,94492.00
2023-05-21T07:45:10.412Z,94498.00
2023-05-21T07:46:10.432Z,94492.00
2023-05-21T07:47:10.390Z,94496.00
2023-05-21T07:48:10.470Z,94494.00
2023-05-21T07:49:10.453Z,94489.00
2023-05-21T07:50:10.455Z,94490.00
2023-05-21T07:51:10.556Z,94490.00
2023-05-21T07:52:10.597Z,94487.00
2023-05-21T07:53:10.746Z,94485.00
2023-05-21T07:54:10.727Z,94481.00
2023-05-21T07:55:10.798Z,94477.00
2023-05-21T07:56:10.818Z,94475.00
2023-05-21T07:57:10.902Z,94477.00
2023-05-21T07:58:11.045Z,94479.00
2023-05-21T07:59:13.747Z,94481.00
2023-05-21T08:00:11.062Z,94483.00
2023-05-21T08:01:11.011Z,94481.00
2023-05-21T08:02:11.008Z,94479.00
2023-05-21T08:03:11.070Z,94477.00
2023-05-21T08:04:11.079Z,94477.00
2023-05-21T08:05:11.011Z,94473.00
2023-05-21T08:06:10.968Z,94473.00
2023-05-21T08:07:11.056Z,94475.00
2023-05-21T08:08:10.939Z,94479.00
2023-05-21T08:09:10.943Z,94481.00
2023-05-21T08:10:10.942Z,94477.00
2023-05-21T08:11:10.925Z,94481.00
2023-05-21T08:12:10.972Z,94479.00
2023-05-21T08:13:10.929Z,94477.00
2023-05-21T08:14:10.912Z,94479.00
2023-05-21T08:15:10.904Z,94477.00
2023-05-21T08:16:10.921Z,94475.00
2023-05-21T08:17:10.916Z,94475.00
2023-05-21T08:18:10.967Z,94475.00
2023-05-21T08:19:10.916Z,94473.00
2023-05-21T08:20:10.870Z,94469.00
2023-05-21T08:21:10.888Z,94469.00
2023-05-21T08:22:10.873Z,94467.00
2023-05-21T08:23:10.901Z,94467.00
2023-05-21T08:24:10.859Z,94467.00
2023-05-21T08:25:10.858Z,94465.00
2023-05-21T08:26:10.881Z,94467.00
2023-05-21T08:27:10.871Z,94467.00
2023-05-21T08:28:10.896Z,94467.00
2023-05-21T08:29:10.829Z,94465.00
2023-05-21T08:30:10.848Z,94463.00
2023-05-21T08:31:10.805Z,94461.00
2023-05-21T08:32:10.856Z,94455.00
2023-05-21T08:33:10.817Z,94457.00
2023-05-21T08:34:10.760Z,94449.00
2023-05-21T08:35:10.759Z,94449.00
2023-05-21T08:36:10.766Z,94447.00
2023-05-21T08:37:10.741Z,94447.00
2023-05-21T08:38:10.765Z,94449.00
2023-05-21T08:39:10.749Z,94453.00
2023-05-21T08:40:10.757Z,94451.00
2023-05-21T08:41:10.690Z,94451.00
2023-05-21T08:42:10.729Z,94449.00
2023-05-21T08:43:10.777Z,94447.00
2023-05-21T08:44:10.703Z,94441.00
2023-05-21T08:45:10.715Z,94439.00
2023-05-21T08:46:10.712Z,94441.00
2023-05-21T08:47:10.702Z,94441.00
2023-05-21T08:48:10.708Z,94443.00
2023-05-21T08:49:10.725Z,94445.00
2023-05-21T08:50:10.657Z,94443.00
2023-05-21T08:51:10.658Z,94447.00
2023-05-21T08:52:10.655Z,94443.00
2023-05-21T08:53:19.820Z,94441.00
2023-05-21T08:54:11.664Z,94438.00
2023-05-21T08:55:10.668Z,94434.00
2023-05-21T08:56:10.654Z,94430.00
2023-05-21T08:57:10.680Z,94430.00
2023-05-21T08:58:10.639Z,94428.00
2023-05-21T08:59:10.598Z,94430.00
2023-05-21T09:00:10.633Z,94426.00
2023-05-21T09:01:10.644Z,94426.00
2023-05-21T09:02:10.644Z,94424.00
2023-05-21T09:03:10.812Z,94422.00
2023-05-21T09:04:20.385Z,94418.00
2023-05-21T09:05:11.787Z,94418.00
2023-05-21T09:06:10.771Z,94418.00
2023-05-21T09:07:10.806Z,94418.00
2023-05-21T09:08:10.788Z,94418.00
2023-05-21T09:09:10.737Z,94426.00
2023-05-21T09:10:10.752Z,94428.00
2023-05-21T09:11:10.773Z,94432.00
2023-05-21T09:12:10.704Z,94432.00
2023-05-21T09:13:10.821Z,94432.00
2023-05-21T09:14:10.822Z,94434.00
2023-05-21T09:15:10.936Z,94441.00
2023-05-21T09:16:11.046Z,94443.00
2023-05-21T09:17:11.040Z,94438.00
2023-05-21T09:18:11.146Z,94428.00
2023-05-21T09:19:11.172Z,94436.00
2023-05-21T09:20:11.236Z,94436.00
2023-05-21T09:21:11.249Z,94428.00
2023-05-21T09:22:11.274Z,94426.00
2023-05-21T09:23:11.349Z,94424.00
2023-05-21T09:24:11.473Z,94426.00
2023-05-21T09:25:11.476Z,94422.00
2023-05-21T09:26:11.519Z,94430.00
2023-05-21T09:27:11.568Z,94424.00
2023-05-21T09:28:11.625Z,94420.00
2023-05-21T09:29:11.710Z,94424.00
2023-05-21T09:30:11.750Z,94430.00
2023-05-21T09:31:11.826Z,94424.00
2023-05-21T09:32:11.872Z,94432.00
2023-05-21T09:33:11.944Z,94432.00
2023-05-21T09:34:11.943Z,94426.00
2023-05-21T09:35:11.931Z,94434.00
2023-05-21T09:36:12.017Z,94432.00
2023-05-21T09:37:23.820Z,94426.00
2023-05-21T09:38:13.029Z,94439.00
2023-05-21T09:39:12.012Z,94434.00
2023-05-21T09:40:12.008Z,94438.00
2023-05-21T09:41:12.030Z,94430.00
2023-05-21T09:42:11.980Z,94438.00
2023-05-21T09:43:11.977Z,94438.00
2023-05-21T09:44:12.018Z,94438.00
2023-05-21T09:45:12.025Z,94438.00
2023-05-21T09:46:11.980Z,94439.00
2023-05-21T09:47:11.966Z,94430.00
2023-05-21T09:48:11.966Z,94430.00
2023-05-21T09:49:11.974Z,94424.00
2023-05-21T09:50:12.004Z,94424.00
2023-05-21T09:51:12.022Z,94428.00
2023-05-21T09:52:12.106Z,94426.00
2023-05-21T09:53:12.177Z,94426.00
2023-05-21T09:54:12.186Z,94426.00
2023-05-21T09:55:12.176Z,94428.00
2023-05-21T09:56:12.213Z,94428.00
2023-05-21T09:57:12.235Z,94434.00
2023-05-21T09:58:12.320Z,94438.00
2023-05-21T09:59:12.326Z,94434.00
2023-05-21T10:00:12.345Z,94441.00
2023-05-21T10:01:12.332Z,94438.00
2023-05-21T10:02:12.450Z,94430.00
2023-05-21T10:03:12.543Z,94432.00
2023-05-21T10:04:12.489Z,94432.00
2023-05-21T10:05:12.477Z,94436.00
2023-05-21T10:06:12.502Z,94436.00
2023-05-21T10:07:12.510Z,94434.00
2023-05-21T10:08:12.575Z,94436.00
2023-05-21T10:09:12.589Z,94432.00
2023-05-21T10:10:12.611Z,94434.00
2023-05-21T10:11:12.614Z,94434.00
2023-05-21T10:12:12.635Z,94430.00
2023-05-21T10:13:12.665Z,94434.00
2023-05-21T10:14:12.653Z,94434.00
2023-05-21T10:15:12.741Z,94434.00
2023-05-21T10:16:12.841Z,94436.00
2023-05-21T10:17:12.774Z,94434.00
2023-05-21T10:18:12.821Z,94436.00
2023-05-21T10:19:12.914Z,94430.00
2023-05-21T10:20:12.857Z,94428.00
2023-05-21T10:21:12.877Z,94430.00
2023-05-21T10:22:12.901Z,94432.00
2023-05-21T10:23:12.987Z,94424.00
2023-05-21T10:24:12.943Z,94426.00
2023-05-21T10:25:12.935Z,94424.00
2023-05-21T10:26:13.033Z,94420.00
2023-05-21T10:27:13.011Z,94418.00
2023-05-21T10:28:13.023Z,94418.00
2023-05-21T10:29:13.024Z,94418.00
2023-05-21T10:30:13.036Z,94420.00
2023-05-21T10:31:13.063Z,94412.00
2023-05-21T10:32:13.125Z,94410.00
2023-05-21T10:33:13.117Z,94416.00
2023-05-21T10:34:13.100Z,94416.00
2023-05-21T10:35:13.090Z,94418.00
2023-05-21T10:36:13.175Z,94410.00
2023-05-21T10:37:13.163Z,94414.00
2023-05-21T10:38:13.211Z,94406.00
2023-05-21T10:39:13.150Z,94408.00
2023-05-21T10:40:13.211Z,94402.00
2023-05-21T10:41:13.217Z,94406.00
2023-05-21T10:42:13.179Z,94402.00
2023-05-21T10:43:13.200Z,94402.00
2023-05-21T10:44:13.256Z,94402.00
2023-05-21T10:45:13.254Z,94406.00
2023-05-21T10:46:13.373Z,94402.00
2023-05-21T10:47:13.263Z,94404.00
2023-05-21T10:48:13.335Z,94402.00
2023-05-21T10:49:13.305Z,94400.00
2023-05-21T10:50:13.357Z,94400.00
2023-05-21T10:51:13.323Z,94392.00
2023-05-21T10:52:13.325Z,94392.00
2023-05-21T10:53:13.363Z,94398.00
2023-05-21T10:54:13.340Z,94387.00
2023-05-21T10:55:13.375Z,94389.00
2023-05-21T10:56:13.374Z,94394.00
2023-05-21T10:57:13.414Z,94391.00
2023-05-21T10:58:13.443Z,94394.00
2023-05-21T10:59:13.427Z,94389.00
2023-05-21T11:00:13.463Z,94389.00
2023-05-21T11:01:13.525Z,94387.00
2023-05-21T11:02:13.472Z,94381.00
2023-05-21T11:03:13.692Z,94391.00
2023-05-21T11:04:13.529Z,94394.00
2023-05-21T11:05:13.509Z,94396.00
2023-05-21T11:06:13.530Z,94389.00
2023-05-21T11:07:13.541Z,94389.00
2023-05-21T11:08:13.615Z,94394.00
2023-05-21T11:09:13.605Z,94387.00
2023-05-21T11:10:13.582Z,94389.00
2023-05-21T11:11:13.594Z,94383.00
2023-05-21T11:12:13.638Z,94391.00
2023-05-21T11:13:13.636Z,94391.00
2023-05-21T11:14:13.635Z,94387.00
2023-05-21T11:15:13.653Z,94392.00
2023-05-21T11:16:13.639Z,94389.00
2023-05-21T11:17:13.869Z,94389.00
2023-05-21T11:18:13.669Z,94387.00
2023-05-21T11:19:13.728Z,94387.00
2023-05-21T11:20:13.784Z,94389.00
2023-05-21T11:21:13.700Z,94381.00
2023-05-21T11:22:13.715Z,94387.00
2023-05-21T11:23:13.709Z,94385.00
2023-05-21T11:24:13.719Z,94381.00
2023-05-21T11:25:13.702Z,94391.00
2023-05-21T11:26:13.734Z,94387.00
2023-05-21T11:27:13.750Z,94387.00
2023-05-21T11:28:13.752Z,94391.00
2023-05-21T11:29:13.697Z,94389.00
2023-05-21T11:30:13.762Z,94385.00
2023-05-21T11:31:13.765Z,94385.00
2023-05-21T11:32:13.761Z,94387.00
2023-05-21T11:33:14.218Z,94383.00
2023-05-21T11:34:13.765Z,94385.00
2023-05-21T11:35:13.760Z,94385.00
2023-05-21T11:36:13.734Z,94383.00
2023-05-21T11:37:13.769Z,94385.00
2023-05-21T11:38:13.788Z,94385.00
2023-05-21T11:39:13.727Z,94379.00
2023-05-21T11:40:13.765Z,94387.00
2023-05-21T11:41:13.761Z,94381.00
2023-05-21T11:42:13.734Z,94369.00
2023-05-21T11:43:13.733Z,94369.00
2023-05-21T11:44:13.736Z,94369.00